Time;durP1;ratioP1;P1;durP2;ratioP2;P2;SDS_P1;SDS_P2;PMS_P1;PMS_P2;Temp;Humidity;BMP_temperature;BMP_pressure;BME280_temperature;BME280_humidity;BME280_pressure;Samples;Min_cycle;Max_cycle;Signal;HPM_P1;HPM_P2
2021/05/24 00:02:11;;;;;;;7.60;4.82;;;;;;;;;;5054879;28;20021;-51
2021/05/24 00:04:37;;;;;;;19.02;11.70;;;;;;;;;;5054636;28;20496;-52
2021/05/24 00:07:07;;;;;;;20.35;13.02;;;;;;;;;;5054430;28;20055;-50
2021/05/24 00:09:33;;;;;;;24.17;15.27;;;;;;;;;;5054670;28;20055;-56
2021/05/24 00:12:02;;;;;;;20.40;13.05;;;;;;;;;;5054376;28;20112;-51
2021/05/24 00:14:29;;;;;;;18.70;10.90;;;;;;;;;;5054708;28;20032;-53
2021/05/24 00:16:55;;;;;;;9.48;6.50;;;;;;;;;;5054527;28;20013;-51
2021/05/24 00:19:21;;;;;;;20.50;12.07;;;;;;;;;;5054201;28;20091;-56
2021/05/24 00:21:47;;;;;;;10.40;6.80;;;;;;;;;;5054267;28;20025;-52
2021/05/24 00:24:13;;;;;;;30.35;17.60;;;;;;;;;;5054251;28;20107;-56
2021/05/24 00:26:39;;;;;;;10.80;7.47;;;;;;;;;;5054180;28;20056;-54
2021/05/24 00:29:05;;;;;;;24.98;13.15;;;;;;;;;;5054515;28;20032;-55
2021/05/24 00:31:31;;;;;;;26.88;15.68;;;;;;;;;;5054183;28;20092;-50
2021/05/24 00:33:58;;;;;;;20.10;10.73;;;;;;;;;;5054039;28;20105;-50
2021/05/24 00:36:24;;;;;;;27.85;15.82;;;;;;;;;;5054065;28;20029;-49
2021/05/24 00:38:50;;;;;;;31.35;18.35;;;;;;;;;;5053946;28;20068;-52
2021/05/24 00:41:18;;;;;;;41.72;24.80;;;;;;;;;;5053867;28;20021;-52
2021/05/24 00:43:44;;;;;;;12.20;6.60;;;;;;;;;;5053826;28;20120;-51
2021/05/24 00:46:10;;;;;;;14.32;8.32;;;;;;;;;;5053815;28;20036;-54
2021/05/24 00:48:36;;;;;;;8.68;5.25;;;;;;;;;;5053873;28;20100;-55
2021/05/24 00:51:02;;;;;;;33.03;18.13;;;;;;;;;;5053551;28;20041;-52
2021/05/24 00:53:30;;;;;;;13.32;7.80;;;;;;;;;;5053769;28;20105;-49
2021/05/24 00:55:56;;;;;;;9.02;4.65;;;;;;;;;;5053698;28;20016;-55
2021/05/24 00:58:22;;;;;;;15.20;8.68;;;;;;;;;;5053741;28;20028;-49
2021/05/24 01:00:49;;;;;;;13.38;7.70;;;;;;;;;;5053657;28;20021;-49
2021/05/24 01:03:16;;;;;;;7.65;5.22;;;;;;;;;;5053470;28;20029;-49
2021/05/24 01:05:43;;;;;;;5.32;3.33;;;;;;;;;;5053567;28;20029;-55
2021/05/24 01:08:11;;;;;;;13.65;6.43;;;;;;;;;;5053571;28;20036;-57
2021/05/24 01:10:37;;;;;;;7.50;4.32;;;;;;;;;;5053358;28;20028;-50
2021/05/24 01:13:05;;;;;;;23.73;9.05;;;;;;;;;;5053435;28;20405;-51
2021/05/24 01:15:31;;;;;;;25.35;9.48;;;;;;;;;;5053320;28;20036;-57
2021/05/24 01:17:59;;;;;;;28.50;11.48;;;;;;;;;;5052769;28;20017;-54
2021/05/24 01:20:28;;;;;;;38.78;13.65;;;;;;;;;;5053053;28;20485;-56
2021/05/24 01:22:59;;;;;;;18.95;7.57;;;;;;;;;;5053152;28;20049;-55
2021/05/24 01:25:26;;;;;;;20.48;11.25;;;;;;;;;;5053113;28;20416;-49
2021/05/24 01:27:52;;;;;;;39.60;20.40;;;;;;;;;;5053176;28;20021;-56
2021/05/24 01:30:18;;;;;;;41.05;15.15;;;;;;;;;;5051538;28;20035;-52
2021/05/24 01:32:45;;;;;;;20.30;11.23;;;;;;;;;;5053144;28;20048;-50
2021/05/24 01:35:11;;;;;;;15.90;9.30;;;;;;;;;;5053098;28;20365;-57
2021/05/24 01:37:37;;;;;;;14.80;8.95;;;;;;;;;;5053122;28;20025;-51
2021/05/24 01:40:05;;;;;;;8.07;4.65;;;;;;;;;;5053097;28;20032;-51
2021/05/24 01:42:31;;;;;;;6.25;3.28;;;;;;;;;;5052926;28;20112;-58
2021/05/24 01:44:57;;;;;;;15.45;9.40;;;;;;;;;;5053076;28;20029;-53
2021/05/24 01:47:23;;;;;;;9.18;4.68;;;;;;;;;;5053034;28;20082;-53
2021/05/24 01:49:49;;;;;;;9.82;5.90;;;;;;;;;;5052866;28;20032;-57
2021/05/24 01:52:16;;;;;;;7.03;4.88;;;;;;;;;;5052939;28;20122;-54
2021/05/24 01:54:43;;;;;;;7.32;4.65;;;;;;;;;;5052864;28;20025;-51
2021/05/24 01:57:09;;;;;;;8.35;3.90;;;;;;;;;;5052949;28;20385;-53
2021/05/24 01:59:36;;;;;;;11.73;4.30;;;;;;;;;;5053220;28;20029;-52
2021/05/24 02:02:02;;;;;;;4.40;2.78;;;;;;;;;;5053035;28;20079;-51
2021/05/24 02:04:28;;;;;;;6.45;4.28;;;;;;;;;;5052907;28;20388;-50
2021/05/24 02:06:54;;;;;;;9.63;4.15;;;;;;;;;;5052993;28;20025;-52
2021/05/24 02:09:22;;;;;;;6.18;3.45;;;;;;;;;;5053032;28;20481;-50
2021/05/24 02:11:49;;;;;;;6.25;4.00;;;;;;;;;;5053120;28;20527;-51
2021/05/24 02:14:15;;;;;;;7.90;3.65;;;;;;;;;;5053077;28;20438;-51
2021/05/24 02:16:44;;;;;;;8.73;3.10;;;;;;;;;;5052946;28;20017;-50
2021/05/24 02:19:10;;;;;;;4.13;2.40;;;;;;;;;;5052816;28;20029;-50
2021/05/24 02:21:37;;;;;;;5.72;2.90;;;;;;;;;;5052626;28;20037;-53
2021/05/24 02:24:04;;;;;;;3.75;2.55;;;;;;;;;;5052827;28;20037;-50
2021/05/24 02:26:30;;;;;;;7.75;2.67;;;;;;;;;;5052677;28;20057;-49
2021/05/24 02:28:56;;;;;;;5.38;2.47;;;;;;;;;;5053081;28;20424;-52
2021/05/24 02:31:22;;;;;;;6.13;2.42;;;;;;;;;;5056564;28;20082;-51
2021/05/24 02:33:48;;;;;;;3.38;2.10;;;;;;;;;;5056877;28;20036;-51
2021/05/24 02:36:15;;;;;;;3.80;2.35;;;;;;;;;;5056512;28;20053;-51
2021/05/24 02:38:41;;;;;;;4.40;2.42;;;;;;;;;;5056459;28;20553;-50
2021/05/24 02:41:07;;;;;;;8.60;2.95;;;;;;;;;;5056254;28;20017;-52
2021/05/24 02:43:34;;;;;;;7.18;2.47;;;;;;;;;;5056275;28;20048;-52
2021/05/24 02:46:00;;;;;;;7.97;2.85;;;;;;;;;;5056330;28;20036;-52
2021/05/24 02:48:26;;;;;;;5.57;2.63;;;;;;;;;;5056155;28;20028;-52
2021/05/24 02:50:52;;;;;;;6.28;2.70;;;;;;;;;;5055781;28;20114;-53
2021/05/24 02:53:18;;;;;;;5.95;2.33;;;;;;;;;;5056150;28;20388;-52
2021/05/24 02:55:45;;;;;;;6.38;2.38;;;;;;;;;;5056002;28;20381;-52
2021/05/24 02:58:11;;;;;;;3.92;2.30;;;;;;;;;;5056218;28;20021;-52
2021/05/24 03:00:37;;;;;;;4.15;2.40;;;;;;;;;;5055903;28;20021;-52
2021/05/24 03:03:03;;;;;;;3.45;2.33;;;;;;;;;;5055876;28;20029;-51
2021/05/24 03:05:29;;;;;;;3.35;2.50;;;;;;;;;;5055936;28;20431;-58
2021/05/24 03:07:55;;;;;;;7.03;2.60;;;;;;;;;;5055820;28;20485;-53
2021/05/24 03:10:23;;;;;;;6.18;2.53;;;;;;;;;;5055715;28;20032;-58
2021/05/24 03:12:49;;;;;;;5.88;2.95;;;;;;;;;;5055792;28;20024;-52
2021/05/24 03:15:16;;;;;;;5.80;3.20;;;;;;;;;;5055650;28;20473;-51
2021/05/24 03:17:42;;;;;;;6.22;2.80;;;;;;;;;;5055828;28;20035;-50
2021/05/24 03:20:09;;;;;;;4.30;2.35;;;;;;;;;;5055582;28;20413;-56
2021/05/24 03:22:35;;;;;;;7.43;2.40;;;;;;;;;;5055647;28;20159;-50
2021/05/24 03:25:01;;;;;;;8.95;2.65;;;;;;;;;;5055381;28;20025;-56
2021/05/24 03:27:28;;;;;;;4.88;2.67;;;;;;;;;;5055571;28;20110;-51
2021/05/24 03:29:54;;;;;;;5.43;2.33;;;;;;;;;;5055390;28;20485;-51
2021/05/24 03:32:22;;;;;;;7.65;2.75;;;;;;;;;;5055301;28;20032;-50
2021/05/24 03:34:48;;;;;;;6.63;2.25;;;;;;;;;;5055359;28;20040;-52
2021/05/24 03:37:15;;;;;;;12.18;2.33;;;;;;;;;;5055446;28;20021;-54
2021/05/24 03:39:41;;;;;;;9.57;2.38;;;;;;;;;;5055109;28;20025;-51
2021/05/24 03:42:07;;;;;;;5.13;2.17;;;;;;;;;;5054583;28;20028;-52
2021/05/24 03:44:36;;;;;;;5.18;2.58;;;;;;;;;;5055109;28;20481;-59
2021/05/24 03:47:03;;;;;;;6.43;2.38;;;;;;;;;;5055143;28;20105;-52
2021/05/24 03:49:29;;;;;;;7.82;2.90;;;;;;;;;;5055197;28;20025;-59
2021/05/24 03:51:55;;;;;;;10.07;2.15;;;;;;;;;;5055060;28;20437;-58
2021/05/24 03:54:21;;;;;;;9.38;2.55;;;;;;;;;;5055366;28;20033;-52
2021/05/24 03:56:48;;;;;;;3.92;2.50;;;;;;;;;;5055064;28;20503;-52
2021/05/24 03:59:14;;;;;;;6.90;2.40;;;;;;;;;;5055183;28;20382;-51
2021/05/24 04:01:40;;;;;;;7.07;2.17;;;;;;;;;;5054846;28;20408;-51
2021/05/24 04:04:06;;;;;;;11.55;2.63;;;;;;;;;;5054777;28;20094;-52
2021/05/24 04:06:33;;;;;;;5.38;2.20;;;;;;;;;;5054653;28;20021;-52
2021/05/24 04:09:00;;;;;;;6.07;2.28;;;;;;;;;;5054665;28;20442;-52
2021/05/24 04:11:26;;;;;;;6.32;2.13;;;;;;;;;;5054611;28;20044;-52
2021/05/24 04:13:55;;;;;;;5.88;2.00;;;;;;;;;;5054628;28;20025;-53
2021/05/24 04:16:21;;;;;;;5.57;1.90;;;;;;;;;;5054718;28;20021;-51
2021/05/24 04:18:51;;;;;;;3.65;1.70;;;;;;;;;;5054467;28;20017;-49
2021/05/24 04:21:19;;;;;;;9.80;2.10;;;;;;;;;;5054059;28;20522;-51
2021/05/24 04:23:45;;;;;;;5.15;1.90;;;;;;;;;;5053164;28;20045;-50
2021/05/24 04:26:12;;;;;;;10.77;2.20;;;;;;;;;;5054528;28;20028;-50
2021/05/24 04:28:38;;;;;;;7.22;2.15;;;;;;;;;;5054439;28;20060;-51
2021/05/24 04:31:06;;;;;;;8.38;2.30;;;;;;;;;;5054113;28;20473;-53
2021/05/24 04:33:32;;;;;;;6.47;3.30;;;;;;;;;;5054069;28;20023;-51
2021/05/24 04:35:59;;;;;;;7.15;4.00;;;;;;;;;;5054190;28;20029;-50
2021/05/24 04:38:25;;;;;;;15.13;6.18;;;;;;;;;;5054324;28;20116;-56
2021/05/24 04:40:51;;;;;;;5.97;2.67;;;;;;;;;;5053967;28;20025;-56
2021/05/24 04:43:17;;;;;;;8.68;5.72;;;;;;;;;;5053795;28;20362;-59
2021/05/24 04:45:43;;;;;;;8.95;4.60;;;;;;;;;;5053785;28;20017;-60
2021/05/24 04:48:09;;;;;;;4.35;3.00;;;;;;;;;;5053987;28;20033;-60
2021/05/24 04:50:35;;;;;;;7.40;4.55;;;;;;;;;;5052133;28;20507;-56
2021/05/24 04:53:02;;;;;;;8.52;2.90;;;;;;;;;;5052962;28;20438;-60
2021/05/24 04:55:28;;;;;;;8.30;3.67;;;;;;;;;;5053637;28;20021;-58
2021/05/24 04:57:54;;;;;;;4.88;2.10;;;;;;;;;;5055959;28;20051;-49
2021/05/24 05:00:20;;;;;;;13.70;5.57;;;;;;;;;;5072120;28;20529;-56
2021/05/24 05:02:46;;;;;;;5.53;3.47;;;;;;;;;;5071995;28;20028;-59
2021/05/24 05:05:13;;;;;;;9.50;3.80;;;;;;;;;;5073621;28;20114;-57
2021/05/24 05:07:39;;;;;;;16.70;9.85;;;;;;;;;;5073350;28;20023;-60
2021/05/24 05:10:05;;;;;;;9.57;6.35;;;;;;;;;;5073245;28;20052;-59
2021/05/24 05:12:32;;;;;;;11.43;6.15;;;;;;;;;;5073307;28;20024;-58
2021/05/24 05:14:59;;;;;;;15.40;6.32;;;;;;;;;;5073592;28;20452;-55
2021/05/24 05:17:25;;;;;;;5.22;3.47;;;;;;;;;;5073295;28;20469;-54
2021/05/24 05:19:51;;;;;;;9.85;2.90;;;;;;;;;;5073250;28;20028;-56
2021/05/24 05:22:18;;;;;;;9.40;3.50;;;;;;;;;;5073197;28;20055;-58
2021/05/24 05:24:44;;;;;;;12.27;3.38;;;;;;;;;;5073117;28;20037;-58
2021/05/24 05:27:10;;;;;;;7.25;3.05;;;;;;;;;;5073239;28;20024;-54
2021/05/24 05:29:36;;;;;;;7.90;4.88;;;;;;;;;;5073253;28;20472;-58
2021/05/24 05:32:02;;;;;;;6.45;3.55;;;;;;;;;;5073244;28;20107;-59
2021/05/24 05:34:28;;;;;;;6.18;1.60;;;;;;;;;;5073222;28;20024;-52
2021/05/24 05:36:54;;;;;;;8.55;1.70;;;;;;;;;;5073007;28;20119;-58
2021/05/24 05:39:20;;;;;;;33.33;22.17;;;;;;;;;;5073156;28;20059;-56
2021/05/24 05:41:46;;;;;;;63.85;44.67;;;;;;;;;;5072933;28;20024;-54
2021/05/24 05:44:12;;;;;;;49.85;28.23;;;;;;;;;;5073013;28;20427;-58
2021/05/24 05:46:38;;;;;;;43.55;27.25;;;;;;;;;;5073109;28;20096;-58
2021/05/24 05:49:05;;;;;;;23.00;11.52;;;;;;;;;;5073207;28;20162;-60
2021/05/24 05:51:31;;;;;;;26.10;18.10;;;;;;;;;;5072711;28;20048;-56
2021/05/24 05:53:57;;;;;;;16.67;8.32;;;;;;;;;;5072873;28;20477;-55
2021/05/24 05:56:23;;;;;;;50.45;20.50;;;;;;;;;;5072977;28;20039;-59
2021/05/24 05:58:49;;;;;;;57.60;35.88;;;;;;;;;;5072956;28;20495;-58
2021/05/24 06:01:16;;;;;;;30.23;18.67;;;;;;;;;;5072848;28;20074;-58
2021/05/24 06:03:42;;;;;;;16.88;8.50;;;;;;;;;;5072861;28;20032;-60
2021/05/24 06:06:08;;;;;;;24.38;8.70;;;;;;;;;;5076599;28;20024;-54
2021/05/24 06:08:34;;;;;;;11.82;7.63;;;;;;;;;;5076841;28;20024;-57
2021/05/24 06:11:00;;;;;;;6.38;2.50;;;;;;;;;;5076681;28;20029;-54
2021/05/24 06:13:27;;;;;;;2.92;2.28;;;;;;;;;;5076594;28;20115;-54
2021/05/24 06:15:56;;;;;;;5.28;2.42;;;;;;;;;;5076645;28;20082;-58
2021/05/24 06:18:22;;;;;;;2.13;1.58;;;;;;;;;;5076688;28;20048;-56
2021/05/24 06:20:48;;;;;;;8.23;4.57;;;;;;;;;;5058063;28;20032;-58
2021/05/24 06:23:15;;;;;;;6.30;2.08;;;;;;;;;;5076608;28;20032;-55
2021/05/24 06:25:42;;;;;;;4.65;1.50;;;;;;;;;;5076481;28;20064;-55
2021/05/24 06:28:08;;;;;;;14.18;8.77;;;;;;;;;;5076660;28;20021;-59
2021/05/24 06:30:34;;;;;;;21.85;11.68;;;;;;;;;;5076600;28;20025;-59
2021/05/24 06:33:00;;;;;;;5.70;2.58;;;;;;;;;;5076374;28;20542;-62
2021/05/24 06:35:27;;;;;;;17.63;5.80;;;;;;;;;;5076270;28;20024;-59
2021/05/24 06:37:53;;;;;;;9.25;4.93;;;;;;;;;;5076231;28;20086;-50
2021/05/24 06:40:19;;;;;;;12.23;7.20;;;;;;;;;;5076116;28;20481;-60
2021/05/24 06:42:45;;;;;;;11.95;6.57;;;;;;;;;;5075969;28;20538;-54
2021/05/24 06:45:12;;;;;;;13.35;8.05;;;;;;;;;;5076093;28;20024;-58
2021/05/24 06:47:39;;;;;;;13.02;7.78;;;;;;;;;;5076148;28;20021;-58
2021/05/24 06:50:05;;;;;;;29.45;16.20;;;;;;;;;;5075943;28;20392;-56
2021/05/24 06:52:32;;;;;;;7.05;4.38;;;;;;;;;;5076012;28;20119;-55
2021/05/24 06:54:58;;;;;;;19.52;10.32;;;;;;;;;;5075898;28;20089;-57
2021/05/24 06:57:25;;;;;;;54.22;33.20;;;;;;;;;;5076154;28;20056;-56
2021/05/24 06:59:51;;;;;;;55.72;35.13;;;;;;;;;;5075785;28;20016;-56
2021/05/24 07:02:18;;;;;;;67.78;42.08;;;;;;;;;;5075759;28;20028;-56
2021/05/24 07:04:44;;;;;;;22.15;14.48;;;;;;;;;;5075794;28;20036;-54
2021/05/24 07:07:10;;;;;;;17.88;10.98;;;;;;;;;;5075655;28;20407;-55
2021/05/24 07:09:37;;;;;;;36.95;22.20;;;;;;;;;;5075629;28;20028;-58
2021/05/24 07:12:03;;;;;;;71.32;27.40;;;;;;;;;;5057785;28;20025;-57
2021/05/24 07:14:29;;;;;;;6.18;2.65;;;;;;;;;;5075543;28;20035;-57
2021/05/24 07:16:56;;;;;;;20.02;7.63;;;;;;;;;;5074685;28;20024;-57
2021/05/24 07:19:22;;;;;;;35.80;13.85;;;;;;;;;;5075684;28;20025;-59
2021/05/24 07:21:48;;;;;;;36.25;17.52;;;;;;;;;;5057340;28;20071;-58
2021/05/24 07:24:14;;;;;;;20.55;10.30;;;;;;;;;;5075493;28;20036;-59
2021/05/24 07:26:41;;;;;;;14.25;6.35;;;;;;;;;;5075360;28;20036;-57
2021/05/24 07:29:07;;;;;;;9.05;3.78;;;;;;;;;;5075408;28;20354;-57
2021/05/24 07:31:33;;;;;;;7.28;4.05;;;;;;;;;;5075442;28;20016;-54
2021/05/24 07:33:59;;;;;;;18.52;7.78;;;;;;;;;;5075425;28;20436;-56
2021/05/24 07:36:26;;;;;;;5.15;2.88;;;;;;;;;;5075210;28;20025;-54
2021/05/24 07:38:52;;;;;;;9.63;4.50;;;;;;;;;;5075082;28;20392;-55
2021/05/24 07:41:18;;;;;;;11.00;5.20;;;;;;;;;;5075245;28;20020;-57
2021/05/24 07:43:44;;;;;;;4.05;1.92;;;;;;;;;;5075030;28;20106;-50
2021/05/24 07:46:10;;;;;;;6.85;1.45;;;;;;;;;;5075292;28;20104;-55
2021/05/24 07:48:36;;;;;;;37.03;15.13;;;;;;;;;;5075064;28;20074;-53
2021/05/24 07:51:03;;;;;;;2.63;1.60;;;;;;;;;;5074871;28;20075;-54
2021/05/24 07:53:30;;;;;;;4.28;2.10;;;;;;;;;;5056516;28;20468;-52
2021/05/24 07:55:56;;;;;;;15.32;9.68;;;;;;;;;;5074973;28;20107;-56
2021/05/24 07:58:22;;;;;;;17.35;8.80;;;;;;;;;;5075148;28;20473;-55
2021/05/24 08:00:48;;;;;;;10.88;5.25;;;;;;;;;;5074741;28;20021;-56
2021/05/24 08:03:14;;;;;;;6.95;3.50;;;;;;;;;;5074889;28;20485;-53
2021/05/24 08:05:40;;;;;;;3.28;2.15;;;;;;;;;;5074803;28;20035;-55
2021/05/24 08:08:06;;;;;;;3.38;1.40;;;;;;;;;;5074648;28;20024;-56
2021/05/24 08:10:33;;;;;;;9.90;4.38;;;;;;;;;;5074570;28;20488;-56
2021/05/24 08:12:59;;;;;;;4.72;2.33;;;;;;;;;;5074752;28;20023;-54
2021/05/24 08:15:30;;;;;;;2.65;1.60;;;;;;;;;;5074607;28;20025;-56
2021/05/24 08:17:57;;;;;;;8.35;2.83;;;;;;;;;;5074408;28;20035;-55
2021/05/24 08:20:23;;;;;;;17.17;7.75;;;;;;;;;;5074150;28;20032;-55
2021/05/24 08:22:49;;;;;;;3.83;2.58;;;;;;;;;;5074164;28;20025;-56
2021/05/24 08:25:15;;;;;;;9.57;4.22;;;;;;;;;;5074345;28;20032;-56
2021/05/24 08:27:42;;;;;;;15.10;7.70;;;;;;;;;;5074099;28;20016;-56
2021/05/24 08:30:08;;;;;;;9.40;3.90;;;;;;;;;;5074171;28;20025;-53
2021/05/24 08:32:35;;;;;;;6.22;2.85;;;;;;;;;;5074120;28;20029;-56
2021/05/24 08:35:01;;;;;;;8.38;2.60;;;;;;;;;;5074234;28;20048;-56
2021/05/24 08:37:27;;;;;;;3.63;1.80;;;;;;;;;;5074049;28;20107;-53
2021/05/24 08:39:53;;;;;;;4.30;1.42;;;;;;;;;;5074226;28;20028;-55
2021/05/24 08:42:19;;;;;;;5.40;2.92;;;;;;;;;;5073989;28;20024;-53
2021/05/24 08:44:47;;;;;;;4.85;1.60;;;;;;;;;;5073806;28;20033;-56
2021/05/24 08:47:14;;;;;;;3.13;1.92;;;;;;;;;;5074424;28;20022;-56
2021/05/24 08:49:40;;;;;;;4.55;1.67;;;;;;;;;;5074052;28;20039;-55
2021/05/24 08:52:06;;;;;;;1.73;1.10;;;;;;;;;;5073569;28;20481;-57
2021/05/24 08:54:36;;;;;;;7.00;2.10;;;;;;;;;;5073769;28;20033;-60
2021/05/24 08:57:03;;;;;;;5.15;1.05;;;;;;;;;;5073803;28;20027;-64
2021/05/24 08:59:29;;;;;;;3.38;1.67;;;;;;;;;;5074125;28;20029;-63
2021/05/24 09:01:55;;;;;;;9.60;4.40;;;;;;;;;;5073762;28;20069;-63
2021/05/24 09:04:21;;;;;;;7.93;3.17;;;;;;;;;;5073463;28;20035;-63
2021/05/24 09:06:52;;;;;;;11.93;5.55;;;;;;;;;;5073781;28;20479;-58
2021/05/24 09:09:19;;;;;;;10.55;6.30;;;;;;;;;;5073554;28;20078;-61
2021/05/24 09:11:46;;;;;;;16.33;7.57;;;;;;;;;;5073503;28;20020;-60
2021/05/24 09:14:19;;;;;;;16.10;4.70;;;;;;;;;;5073654;28;20029;-46
2021/05/24 09:16:54;;;;;;;7.43;1.88;;;;;;;;;;5073826;28;20423;-61
2021/05/24 09:19:20;;;;;;;12.93;2.25;;;;;;;;;;5073716;28;20116;-46
2021/05/24 09:21:56;;;;;;;7.78;3.88;;;;;;;;;;5073339;28;20020;-45
2021/05/24 09:24:38;;;;;;;1.52;1.08;;;;;;;;;;5073311;28;20385;-60
2021/05/24 09:27:09;;;;;;;6.20;2.90;;;;;;;;;;5073539;28;20550;-60
2021/05/24 09:29:42;;;;;;;4.93;2.50;;;;;;;;;;5073488;28;20039;-61
2021/05/24 09:32:15;;;;;;;3.78;1.80;;;;;;;;;;5073325;28;20024;-61
2021/05/24 09:34:44;;;;;;;1.42;0.90;;;;;;;;;;5073262;28;20043;-45
2021/05/24 09:37:11;;;;;;;4.68;1.42;;;;;;;;;;5073209;28;20034;-45
2021/05/24 09:39:37;;;;;;;6.65;1.00;;;;;;;;;;5073030;28;20025;-60
2021/05/24 09:42:10;;;;;;;5.10;0.60;;;;;;;;;;5073574;28;20437;-61
2021/05/24 09:44:42;;;;;;;2.15;1.05;;;;;;;;;;5073335;28;20032;-45
2021/05/24 09:47:08;;;;;;;1.98;0.80;;;;;;;;;;5073210;28;20048;-61
2021/05/24 09:49:35;;;;;;;3.40;1.33;;;;;;;;;;5073134;28;20020;-45
2021/05/24 09:52:01;;;;;;;2.92;0.95;;;;;;;;;;5072829;28;20051;-47
2021/05/24 09:54:37;;;;;;;6.55;1.38;;;;;;;;;;5073127;28;20074;-60
2021/05/24 09:57:09;;;;;;;6.45;1.08;;;;;;;;;;5073546;28;20052;-60
2021/05/24 09:59:35;;;;;;;1.42;0.75;;;;;;;;;;5073337;28;20063;-45
2021/05/24 10:02:04;;;;;;;1.17;0.65;;;;;;;;;;5073275;28;20436;-61
2021/05/24 10:04:32;;;;;;;3.30;1.02;;;;;;;;;;5073172;28;20434;-60
2021/05/24 10:07:02;;;;;;;3.03;0.80;;;;;;;;;;5073181;28;20035;-59
2021/05/24 10:09:31;;;;;;;1.20;0.70;;;;;;;;;;5073171;28;20033;-61
2021/05/24 10:11:59;;;;;;;1.30;0.70;;;;;;;;;;5073066;28;20025;-61
2021/05/24 10:14:26;;;;;;;4.30;0.63;;;;;;;;;;5073050;28;20033;-46
2021/05/24 10:17:03;;;;;;;1.00;0.60;;;;;;;;;;5073148;28;20465;-48
2021/05/24 10:19:30;;;;;;;5.07;0.63;;;;;;;;;;5072951;28;20148;-60
2021/05/24 10:21:56;;;;;;;2.22;0.52;;;;;;;;;;5072633;28;20032;-45
2021/05/24 10:24:24;;;;;;;2.13;0.88;;;;;;;;;;5073041;28;20041;-60
2021/05/24 10:26:50;;;;;;;0.75;0.68;;;;;;;;;;5072993;28;20020;-60
2021/05/24 10:29:18;;;;;;;4.90;0.80;;;;;;;;;;5072875;28;20105;-45
2021/05/24 10:31:46;;;;;;;6.10;0.77;;;;;;;;;;5072872;28;20025;-60
2021/05/24 10:34:12;;;;;;;2.22;0.45;;;;;;;;;;5072929;28;20050;-46
2021/05/24 10:36:38;;;;;;;4.75;0.80;;;;;;;;;;5072952;28;20020;-61
2021/05/24 10:39:06;;;;;;;1.10;0.50;;;;;;;;;;5072783;28;20031;-61
2021/05/24 10:41:44;;;;;;;4.40;1.08;;;;;;;;;;5072846;28;20075;-50
2021/05/24 10:44:11;;;;;;;0.57;0.30;;;;;;;;;;5072584;28;20453;-58
2021/05/24 10:46:37;;;;;;;2.30;0.50;;;;;;;;;;5072654;28;20016;-61
2021/05/24 10:49:06;;;;;;;1.52;0.50;;;;;;;;;;5072834;28;20048;-60
2021/05/24 10:51:47;;;;;;;3.30;0.68;;;;;;;;;;5073599;28;20033;-60
2021/05/24 10:54:19;;;;;;;4.35;0.70;;;;;;;;;;5076132;28;20039;-60
2021/05/24 10:56:46;;;;;;;2.38;0.70;;;;;;;;;;5075982;28;20021;-61
2021/05/24 10:59:31;;;;;;;1.70;0.60;;;;;;;;;;5076106;28;20029;-60
2021/05/24 11:02:00;;;;;;;2.78;0.65;;;;;;;;;;5073985;28;20473;-60
2021/05/24 11:04:44;;;;;;;7.93;4.60;;;;;;;;;;5074382;28;20037;-55
2021/05/24 11:07:24;;;;;;;40.63;28.60;;;;;;;;;;5073432;28;20469;-55
2021/05/24 11:09:50;;;;;;;21.98;13.98;;;;;;;;;;5073602;28;20021;-60
2021/05/24 11:12:29;;;;;;;24.70;16.95;;;;;;;;;;5075632;28;20099;-58
2021/05/24 11:15:15;;;;;;;44.08;25.17;;;;;;;;;;5075182;28;20119;-45
2021/05/24 11:18:04;;;;;;;204.82;132.18;;;;;;;;;;5075427;28;20024;-57
2021/05/24 11:20:30;;;;;;;6.83;4.60;;;;;;;;;;5067508;28;20041;-58
2021/05/24 11:26:13;;;;;;;18.35;8.98;;;;;;;;;;5075431;28;20041;-56
2021/05/24 11:28:59;;;;;;;51.42;27.98;;;;;;;;;;5075253;28;20043;-50
2021/05/24 11:31:25;;;;;;;60.78;38.35;;;;;;;;;;5075126;28;20020;-59
2021/05/24 11:33:53;;;;;;;7.00;4.28;;;;;;;;;;5075281;28;20349;-59
2021/05/24 11:36:39;;;;;;;1.45;0.80;;;;;;;;;;5075239;28;20039;-61
2021/05/24 11:39:05;;;;;;;29.40;18.52;;;;;;;;;;5074999;28;20031;-59
2021/05/24 11:41:32;;;;;;;23.20;12.60;;;;;;;;;;5075114;28;20025;-59
2021/05/24 11:44:00;;;;;;;5.43;3.33;;;;;;;;;;5075090;28;20043;-45
2021/05/24 11:46:26;;;;;;;17.15;10.95;;;;;;;;;;5075120;28;20082;-59
2021/05/24 11:48:54;;;;;;;8.98;5.25;;;;;;;;;;5074948;28;20107;-55
2021/05/24 11:51:32;;;;;;;3.75;2.50;;;;;;;;;;5074669;28;20512;-45
2021/05/24 11:54:04;;;;;;;37.70;10.80;;;;;;;;;;5074954;28;20084;-60
2021/05/24 11:56:37;;;;;;;5.57;2.28;;;;;;;;;;5074907;28;20028;-57
2021/05/24 11:59:04;;;;;;;6.43;1.98;;;;;;;;;;5074678;28;20040;-59
2021/05/24 12:01:30;;;;;;;8.02;3.78;;;;;;;;;;5074661;28;20020;-59
2021/05/24 12:03:56;;;;;;;4.10;0.80;;;;;;;;;;5074125;28;20028;-56
2021/05/24 12:06:23;;;;;;;6.45;2.97;;;;;;;;;;5074866;28;20028;-59
2021/05/24 12:08:50;;;;;;;2.53;0.60;;;;;;;;;;5074470;28;20020;-59
2021/05/24 12:11:16;;;;;;;3.17;0.75;;;;;;;;;;5074652;28;20028;-59
2021/05/24 12:13:58;;;;;;;7.45;1.08;;;;;;;;;;5074583;28;20358;-59
2021/05/24 12:16:25;;;;;;;2.50;0.73;;;;;;;;;;5074305;28;20020;-59
2021/05/24 12:18:51;;;;;;;2.65;0.80;;;;;;;;;;5074387;28;20421;-57
2021/05/24 12:21:33;;;;;;;1.10;0.80;;;;;;;;;;5056283;28;20405;-56
2021/05/24 12:24:06;;;;;;;1.20;0.80;;;;;;;;;;5074136;28;20032;-56
2021/05/24 12:26:32;;;;;;;6.82;2.42;;;;;;;;;;5074047;28;20086;-61
2021/05/24 12:28:59;;;;;;;52.00;23.85;;;;;;;;;;5074000;28;20024;-60
2021/05/24 12:31:26;;;;;;;49.42;23.63;;;;;;;;;;5072621;28;20534;-58
2021/05/24 12:33:53;;;;;;;61.53;33.13;;;;;;;;;;5072842;28;20024;-61
2021/05/24 12:36:20;;;;;;;10.55;4.82;;;;;;;;;;5072477;28;20020;-60
2021/05/24 12:38:51;;;;;;;14.52;8.50;;;;;;;;;;5072439;28;20025;-49
2021/05/24 12:41:19;;;;;;;5.57;3.05;;;;;;;;;;5072560;28;20059;-58
2021/05/24 12:43:53;;;;;;;19.13;11.82;;;;;;;;;;5069868;28;20461;-55
2021/05/24 12:46:20;;;;;;;19.55;8.52;;;;;;;;;;5072408;28;20024;-53
2021/05/24 12:48:52;;;;;;;104.72;62.03;;;;;;;;;;5072571;28;20027;-62
2021/05/24 12:51:22;;;;;;;35.60;23.20;;;;;;;;;;5069713;28;20523;-62
2021/05/24 12:53:56;;;;;;;49.03;30.08;;;;;;;;;;5072115;28;20447;-52
2021/05/24 12:56:23;;;;;;;113.45;60.75;;;;;;;;;;5070350;28;20017;-60
2021/05/24 12:58:49;;;;;;;60.45;30.70;;;;;;;;;;5069507;28;20027;-64
2021/05/24 13:01:28;;;;;;;23.83;13.35;;;;;;;;;;5069465;28;20027;-54
2021/05/24 13:03:55;;;;;;;8.15;4.22;;;;;;;;;;5072565;28;20090;-56
2021/05/24 13:06:22;;;;;;;23.08;12.82;;;;;;;;;;5072784;28;20117;-59
2021/05/24 13:08:48;;;;;;;12.55;8.38;;;;;;;;;;5071968;28;20153;-61
2021/05/24 13:11:14;;;;;;;15.70;8.32;;;;;;;;;;5072721;28;20115;-58
2021/05/24 13:13:40;;;;;;;14.50;7.13;;;;;;;;;;5072794;28;20035;-53
2021/05/24 13:16:29;;;;;;;20.45;12.45;;;;;;;;;;5073320;28;20074;-54
2021/05/24 13:25:28;;;;;;;33.72;21.20;;;;;;;;;;5071696;28;20052;-56
2021/05/24 13:30:39;;;;;;;4.63;2.83;;;;;;;;;;5070569;28;20025;-54
2021/05/24 13:33:23;;;;;;;12.18;5.05;;;;;;;;;;5069394;28;20027;-56
2021/05/24 13:35:49;;;;;;;34.33;15.23;;;;;;;;;;5052500;28;20037;-56
2021/05/24 13:38:15;;;;;;;18.63;9.68;;;;;;;;;;5052961;28;20050;-58
2021/05/24 13:40:41;;;;;;;585.28;395.40;;;;;;;;;;5064906;28;20027;-53
2021/05/24 13:43:07;;;;;;;6.13;3.85;;;;;;;;;;5072953;28;20544;-55
2021/05/24 13:45:33;;;;;;;29.30;10.27;;;;;;;;;;5073048;28;20064;-56
2021/05/24 13:48:02;;;;;;;8.88;4.53;;;;;;;;;;5073180;28;20016;-56
2021/05/24 13:50:28;;;;;;;13.07;5.47;;;;;;;;;;5072906;28;20041;-58
2021/05/24 13:52:54;;;;;;;29.05;13.85;;;;;;;;;;5072909;28;20024;-49
2021/05/24 13:55:20;;;;;;;8.13;5.47;;;;;;;;;;5072839;28;20070;-56
2021/05/24 13:57:49;;;;;;;15.40;9.05;;;;;;;;;;5072939;28;20074;-56
2021/05/24 14:00:19;;;;;;;8.52;1.33;;;;;;;;;;5071875;28;20021;-57
2021/05/24 14:02:45;;;;;;;28.15;15.75;;;;;;;;;;5072309;28;20024;-56
2021/05/24 14:05:13;;;;;;;41.80;19.58;;;;;;;;;;5072375;28;20040;-53
2021/05/24 14:07:39;;;;;;;21.33;11.98;;;;;;;;;;5072330;28;20035;-53
2021/05/24 14:10:05;;;;;;;58.72;26.50;;;;;;;;;;5072658;28;20089;-55
2021/05/24 14:12:31;;;;;;;70.57;41.13;;;;;;;;;;5072897;28;20104;-57
2021/05/24 14:14:57;;;;;;;5.22;2.58;;;;;;;;;;5072867;28;20102;-52
2021/05/24 14:17:23;;;;;;;5.65;2.05;;;;;;;;;;5072881;28;20024;-58
2021/05/24 14:19:49;;;;;;;13.82;6.15;;;;;;;;;;5072554;28;20074;-57
2021/05/24 14:22:15;;;;;;;6.85;1.80;;;;;;;;;;5072606;28;20380;-56
2021/05/24 14:24:41;;;;;;;6.80;0.90;;;;;;;;;;5049340;28;20512;-54
2021/05/24 14:27:10;;;;;;;15.52;1.70;;;;;;;;;;5049154;28;20509;-53
2021/05/24 14:29:36;;;;;;;6.82;1.00;;;;;;;;;;5049027;28;20110;-55
2021/05/24 14:32:02;;;;;;;3.35;1.10;;;;;;;;;;5049450;28;20652;-53
2021/05/24 14:34:29;;;;;;;3.83;1.10;;;;;;;;;;5048734;28;20089;-55
2021/05/24 14:36:57;;;;;;;1.45;0.90;;;;;;;;;;5049010;28;20021;-54
2021/05/24 14:39:25;;;;;;;0.85;0.82;;;;;;;;;;5048958;28;20385;-51
2021/05/24 14:41:51;;;;;;;44.70;24.65;;;;;;;;;;5048887;28;20040;-54
2021/05/24 14:44:17;;;;;;;63.85;31.02;;;;;;;;;;5049438;28;20119;-53
2021/05/24 14:46:43;;;;;;;60.75;42.58;;;;;;;;;;5048619;28;20088;-56
2021/05/24 14:49:11;;;;;;;4.93;2.10;;;;;;;;;;5048790;28;20374;-57
2021/05/24 14:51:41;;;;;;;47.22;10.23;;;;;;;;;;5048762;28;20083;-57